Terminal Aerodrome Forecast
Issued by NWS Wilmington, OH

Current Version | Previous Version | Graphics & Text | Print | Product List | Glossary On
Versions: 1 2 3 4 5 6 7 8 9 10 11 12 13 14 15 16 17 18 19 20 21 22 23
000
FTUS41 KILN 170537
TAFCVG
TAF
KCVG 170537Z 1706/1812 27005KT P6SM -SN OVC015
     FM171500 27006KT P6SM SCT015
     FM171900 26007KT P6SM FEW035 SCT150
     FM180000 24006KT P6SM SCT120 BKN200
     FM180800 23008KT P6SM SCT200=

USA.gov is the U.S. government's official web portal to all federal, state and local government web resources and services.